Terminal Aerodrome Forecast
Issued by NWS

Home | Current Version | Previous Version | Text Only | Print | Product List | Glossary On
Versions: 1 2 3 4 5 6 7 8 9 10 11 12 13 14 15 16 17
000
FTUS46 KPDT 250500
TAFRDM
TAF
KRDM 250525Z 2506/2606 30005KT P6SM SKC
     FM251000 16004KT P6SM SKC
     FM251600 VRB02KT P6SM SKC
     FM252100 33009KT P6SM FEW060=

USA.gov is the U.S. government's official web portal to all federal, state and local government web resources and services.